createdAt,value
2018-03-27T00:00:09.173Z,7.03
2018-03-27T00:01:09.067Z,7.10
2018-03-27T00:02:09.043Z,7.10
2018-03-27T00:03:08.908Z,7.02
2018-03-27T00:04:08.832Z,7.10
2018-03-27T00:05:08.755Z,6.99
2018-03-27T00:06:08.677Z,7.05
2018-03-27T00:07:08.594Z,7.03
2018-03-27T00:08:08.514Z,6.88
2018-03-27T00:09:08.437Z,6.92
2018-03-27T00:10:08.359Z,6.92
2018-03-27T00:11:08.279Z,6.89
2018-03-27T00:12:08.199Z,6.87
2018-03-27T00:13:08.119Z,6.87
2018-03-27T00:14:08.040Z,6.80
2018-03-27T00:15:07.960Z,6.71
2018-03-27T00:16:07.881Z,6.80
2018-03-27T00:17:07.805Z,6.80
2018-03-27T00:18:07.725Z,6.77
2018-03-27T00:19:07.644Z,6.71
2018-03-27T00:20:07.565Z,6.66
2018-03-27T00:21:07.487Z,6.59
2018-03-27T00:22:07.409Z,6.64
2018-03-27T00:23:07.334Z,6.59
2018-03-27T00:24:07.252Z,6.59
2018-03-27T00:25:07.171Z,6.56
2018-03-27T00:26:07.090Z,6.55
2018-03-27T00:27:07.013Z,6.55
2018-03-27T00:28:06.932Z,6.58
2018-03-27T00:29:06.898Z,6.59
2018-03-27T00:30:06.775Z,6.48
2018-03-27T00:31:06.700Z,6.49
2018-03-27T00:32:06.619Z,6.46
2018-03-27T00:33:06.543Z,6.46
2018-03-27T00:34:06.458Z,6.52
2018-03-27T00:35:06.411Z,6.43
2018-03-27T00:36:06.308Z,6.40
2018-03-27T00:37:06.226Z,6.33
2018-03-27T00:38:06.140Z,6.34
2018-03-27T00:39:06.063Z,6.27
2018-03-27T00:40:05.986Z,6.28
2018-03-27T00:41:05.904Z,6.22
2018-03-27T00:42:05.821Z,6.27
2018-03-27T00:43:05.745Z,6.15
2018-03-27T00:44:05.667Z,6.21
2018-03-27T00:45:05.595Z,6.09
2018-03-27T00:46:05.507Z,6.01
2018-03-27T00:47:05.424Z,6.08
2018-03-27T00:48:05.349Z,6.08
2018-03-27T00:49:05.270Z,6.09
2018-03-27T00:50:05.189Z,6.03
2018-03-27T00:51:05.111Z,6.12
2018-03-27T00:52:05.029Z,6.14
2018-03-27T00:53:04.950Z,6.09
2018-03-27T00:54:04.879Z,6.03
2018-03-27T00:55:04.795Z,6.01
2018-03-27T00:56:04.713Z,6.01
2018-03-27T00:57:04.633Z,5.96
2018-03-27T00:58:04.553Z,5.93
2018-03-27T00:59:04.473Z,5.99
2018-03-27T01:00:04.393Z,5.99
2018-03-27T01:01:04.321Z,5.93
2018-03-27T01:02:04.238Z,5.94
2018-03-27T01:03:04.156Z,5.93
2018-03-27T01:04:04.081Z,5.89
2018-03-27T01:05:04.000Z,5.83
2018-03-27T01:06:03.919Z,5.82
2018-03-27T01:07:03.842Z,5.79
2018-03-27T01:08:03.758Z,5.82
2018-03-27T01:09:03.680Z,5.82
2018-03-27T01:10:03.599Z,5.82
2018-03-27T01:11:03.518Z,5.91
2018-03-27T01:12:03.437Z,5.93
2018-03-27T01:13:03.365Z,5.97
2018-03-27T01:14:03.279Z,5.96
2018-03-27T01:15:03.200Z,5.81
2018-03-27T01:16:03.120Z,5.99
2018-03-27T01:17:03.041Z,5.83
2018-03-27T01:18:02.959Z,5.82
2018-03-27T01:19:02.883Z,5.81
2018-03-27T01:20:02.813Z,5.76
2018-03-27T01:21:02.726Z,5.76
2018-03-27T01:22:02.641Z,5.74
2018-03-27T01:23:02.565Z,5.58
2018-03-27T01:24:02.482Z,5.71
2018-03-27T01:25:02.404Z,5.65
2018-03-27T01:26:02.318Z,5.61
2018-03-27T01:27:02.246Z,5.58
2018-03-27T01:28:02.172Z,5.61
2018-03-27T01:29:02.082Z,5.63
2018-03-27T01:30:02.024Z,5.53
2018-03-27T01:31:01.926Z,5.54
2018-03-27T01:32:01.845Z,5.51
2018-03-27T01:33:01.790Z,5.54
2018-03-27T01:34:01.686Z,5.57
2018-03-27T01:35:01.603Z,5.49
2018-03-27T01:36:01.526Z,5.45
2018-03-27T01:37:01.450Z,5.36
2018-03-27T01:38:01.366Z,5.31
2018-03-27T01:39:01.287Z,5.36
2018-03-27T01:40:01.207Z,5.28
2018-03-27T01:41:01.125Z,5.24
2018-03-27T01:42:01.046Z,5.24
2018-03-27T01:43:00.973Z,5.21
2018-03-27T01:44:00.887Z,5.22
2018-03-27T01:45:00.807Z,5.31
2018-03-27T01:46:00.729Z,5.28
2018-03-27T01:47:00.645Z,5.33
2018-03-27T01:48:00.565Z,5.35
2018-03-27T01:49:00.482Z,5.28
2018-03-27T01:50:00.418Z,5.25
2018-03-27T01:51:00.324Z,5.22
2018-03-27T01:52:00.246Z,5.20
2018-03-27T01:53:00.172Z,5.15
2018-03-27T01:54:00.086Z,5.21
2018-03-27T01:55:00.011Z,5.25
2018-03-27T01:55:59.925Z,5.21
2018-03-27T01:56:59.845Z,5.13
2018-03-27T01:57:59.766Z,5.03
2018-03-27T01:58:59.687Z,5.02
2018-03-27T01:59:59.604Z,5.04
2018-03-27T02:00:59.525Z,5.06
2018-03-27T02:01:59.444Z,5.06
2018-03-27T02:02:59.365Z,4.88
2018-03-27T02:03:59.281Z,4.96
2018-03-27T02:04:59.204Z,4.91
2018-03-27T02:05:59.129Z,4.92
2018-03-27T02:06:59.042Z,4.85
2018-03-27T02:07:58.964Z,4.72
2018-03-27T02:08:58.889Z,4.73
2018-03-27T02:09:58.801Z,4.65
2018-03-27T02:10:58.724Z,4.63
2018-03-27T02:11:58.642Z,4.60
2018-03-27T02:12:58.562Z,4.55
2018-03-27T02:13:58.482Z,4.60
2018-03-27T02:14:58.407Z,4.55
2018-03-27T02:15:58.370Z,4.51
2018-03-27T02:16:58.243Z,4.52
2018-03-27T02:17:58.161Z,4.48
2018-03-27T02:18:58.082Z,4.42
2018-03-27T02:19:58.000Z,4.40
2018-03-27T02:20:57.920Z,4.30
2018-03-27T02:21:57.841Z,4.26
2018-03-27T02:22:57.761Z,4.33
2018-03-27T02:23:57.678Z,4.18
2018-03-27T02:24:57.603Z,4.20
2018-03-27T02:25:57.535Z,4.20
2018-03-27T02:26:57.437Z,4.15
2018-03-27T02:27:57.358Z,4.05
2018-03-27T02:28:57.280Z,4.04
2018-03-27T02:29:57.199Z,4.05
2018-03-27T02:30:57.119Z,4.04
2018-03-27T02:31:57.036Z,4.00
2018-03-27T02:32:56.955Z,4.05
2018-03-27T02:33:56.876Z,3.91
2018-03-27T02:34:56.854Z,3.96
2018-03-27T02:35:56.720Z,3.91
2018-03-27T02:36:56.635Z,3.97
2018-03-27T02:37:56.551Z,3.97
2018-03-27T02:38:56.472Z,3.91
2018-03-27T02:39:56.395Z,3.96
2018-03-27T02:40:56.321Z,4.04
2018-03-27T02:41:56.232Z,3.90
2018-03-27T02:42:56.149Z,3.93
2018-03-27T02:43:56.069Z,3.87
2018-03-27T02:44:56.001Z,3.90
2018-03-27T02:45:55.909Z,3.88
2018-03-27T02:46:55.825Z,3.86
2018-03-27T02:47:55.745Z,3.91
2018-03-27T02:48:55.668Z,3.98
2018-03-27T02:49:55.580Z,3.96
2018-03-27T02:50:55.504Z,3.96
2018-03-27T02:51:55.425Z,3.93
2018-03-27T02:52:55.340Z,3.93
2018-03-27T02:53:55.262Z,3.90
2018-03-27T02:54:55.182Z,3.83
2018-03-27T02:55:55.101Z,3.80
2018-03-27T02:56:55.018Z,3.73
2018-03-27T02:57:54.939Z,3.79
2018-03-27T02:58:54.853Z,3.75
2018-03-27T02:59:54.775Z,3.68
2018-03-27T03:00:54.694Z,3.66
2018-03-27T03:01:54.615Z,3.69
2018-03-27T03:02:54.540Z,3.78
2018-03-27T03:03:54.452Z,3.66
2018-03-27T03:04:54.393Z,3.65
2018-03-27T03:05:54.291Z,3.62
2018-03-27T03:06:54.210Z,3.58
2018-03-27T03:07:54.129Z,3.60
2018-03-27T03:08:54.049Z,3.61
2018-03-27T03:09:53.965Z,3.61
2018-03-27T03:10:53.885Z,3.57
2018-03-27T03:11:53.804Z,3.52
2018-03-27T03:12:53.725Z,3.52
2018-03-27T03:13:53.642Z,3.45
2018-03-27T03:14:53.561Z,3.45
2018-03-27T03:15:53.482Z,3.43
2018-03-27T03:16:53.399Z,3.32
2018-03-27T03:17:53.318Z,3.36
2018-03-27T03:18:53.236Z,3.36
2018-03-27T03:19:53.156Z,3.33
2018-03-27T03:20:53.076Z,3.31
2018-03-27T03:21:52.994Z,3.32
2018-03-27T03:22:52.916Z,3.35
2018-03-27T03:23:52.828Z,3.33
2018-03-27T03:24:52.758Z,3.31
2018-03-27T03:25:52.668Z,3.36
2018-03-27T03:26:52.587Z,3.31
2018-03-27T03:27:52.508Z,3.35
2018-03-27T03:28:52.425Z,3.43
2018-03-27T03:29:52.344Z,3.47
2018-03-27T03:30:52.265Z,3.43
2018-03-27T03:31:52.184Z,3.43
2018-03-27T03:32:52.103Z,3.43
2018-03-27T03:33:52.024Z,3.43
2018-03-27T03:34:51.938Z,3.42
2018-03-27T03:35:51.858Z,3.32
2018-03-27T03:36:51.777Z,3.33
2018-03-27T03:37:51.696Z,3.31
2018-03-27T03:38:51.615Z,3.42
2018-03-27T03:39:51.533Z,3.36
2018-03-27T03:40:51.452Z,3.45
2018-03-27T03:41:51.370Z,3.50
2018-03-27T03:42:51.292Z,3.48
2018-03-27T03:43:51.209Z,3.55
2018-03-27T03:44:51.126Z,3.50
2018-03-27T03:45:51.045Z,3.32
2018-03-27T03:46:50.964Z,3.28
2018-03-27T03:47:50.884Z,3.15
2018-03-27T03:48:50.802Z,3.11
2018-03-27T03:49:50.718Z,3.02
2018-03-27T03:50:50.641Z,3.02
2018-03-27T03:51:50.558Z,3.05
2018-03-27T03:52:50.486Z,3.10
2018-03-27T03:53:50.393Z,3.08
2018-03-27T03:54:50.313Z,3.00
2018-03-27T03:55:50.233Z,3.08
2018-03-27T03:56:50.149Z,2.96
2018-03-27T03:57:50.076Z,3.03
2018-03-27T03:58:49.986Z,3.05
2018-03-27T03:59:49.908Z,3.03
2018-03-27T04:00:49.825Z,2.92
2018-03-27T04:01:49.744Z,2.89
2018-03-27T04:02:49.662Z,2.95
2018-03-27T04:03:49.582Z,2.93
2018-03-27T04:04:49.499Z,2.96
2018-03-27T04:05:49.417Z,2.92
2018-03-27T04:06:49.362Z,2.93
2018-03-27T04:07:49.268Z,2.82
2018-03-27T04:08:49.238Z,2.75
2018-03-27T04:09:49.092Z,2.67
2018-03-27T04:10:49.010Z,2.81
2018-03-27T04:11:48.929Z,2.66
2018-03-27T04:12:48.848Z,2.75
2018-03-27T04:13:48.766Z,2.69
2018-03-27T04:14:48.682Z,2.71
2018-03-27T04:15:48.602Z,2.66
2018-03-27T04:16:48.521Z,2.71
2018-03-27T04:17:48.441Z,2.69
2018-03-27T04:18:48.360Z,2.69
2018-03-27T04:19:48.304Z,2.72
2018-03-27T04:20:48.195Z,2.63
2018-03-27T04:21:48.113Z,2.71
2018-03-27T04:22:48.038Z,2.63
2018-03-27T04:23:47.952Z,2.66
2018-03-27T04:24:47.868Z,2.59
2018-03-27T04:25:47.786Z,2.63
2018-03-27T04:26:47.709Z,2.60
2018-03-27T04:27:47.619Z,2.61
2018-03-27T04:28:47.542Z,2.60
2018-03-27T04:29:47.463Z,2.54
2018-03-27T04:30:47.379Z,2.54
2018-03-27T04:31:47.309Z,2.52
2018-03-27T04:32:47.212Z,2.54
2018-03-27T04:33:47.141Z,2.53
2018-03-27T04:34:47.057Z,2.43
2018-03-27T04:35:46.969Z,2.43
2018-03-27T04:36:46.887Z,2.41
2018-03-27T04:37:46.806Z,2.46
2018-03-27T04:38:46.724Z,2.46
2018-03-27T04:39:46.665Z,2.49
2018-03-27T04:40:46.563Z,2.43
2018-03-27T04:41:46.478Z,2.41
2018-03-27T04:42:46.397Z,2.48
2018-03-27T04:43:46.314Z,2.52
2018-03-27T04:44:46.232Z,2.39
2018-03-27T04:45:46.151Z,2.38
2018-03-27T04:46:46.067Z,2.41
2018-03-27T04:47:45.990Z,2.41
2018-03-27T04:48:45.908Z,2.38
2018-03-27T04:49:45.820Z,2.38
2018-03-27T04:50:45.741Z,2.34
2018-03-27T04:51:45.663Z,2.28
2018-03-27T04:52:45.578Z,2.35
2018-03-27T04:53:45.507Z,2.34
2018-03-27T04:54:45.418Z,2.28
2018-03-27T04:55:45.332Z,2.28
2018-03-27T04:56:45.248Z,2.16
2018-03-27T04:57:45.163Z,2.17
2018-03-27T04:58:45.085Z,2.23
2018-03-27T04:59:45.002Z,2.21
2018-03-27T05:00:44.920Z,2.21
2018-03-27T05:01:44.838Z,2.17
2018-03-27T05:02:44.755Z,2.07
2018-03-27T05:03:44.675Z,2.07
2018-03-27T05:04:44.591Z,2.12
2018-03-27T05:05:44.510Z,2.18
2018-03-27T05:06:44.430Z,2.12
2018-03-27T05:07:44.349Z,2.07
2018-03-27T05:08:44.265Z,2.05
2018-03-27T05:09:44.182Z,2.10
2018-03-27T05:10:44.100Z,2.00
2018-03-27T05:11:44.019Z,2.00
2018-03-27T05:12:43.937Z,1.98
2018-03-27T05:13:43.850Z,1.99
2018-03-27T05:14:43.777Z,1.99
2018-03-27T05:15:43.691Z,2.06
2018-03-27T05:16:43.609Z,1.91
2018-03-27T05:17:43.524Z,2.02
2018-03-27T05:18:43.447Z,1.98
2018-03-27T05:19:43.360Z,2.03
2018-03-27T05:20:43.280Z,1.98
2018-03-27T05:21:43.198Z,2.06
2018-03-27T05:22:43.116Z,2.06
2018-03-27T05:23:43.033Z,2.06
2018-03-27T05:24:42.949Z,2.23
2018-03-27T05:25:42.870Z,2.18
2018-03-27T05:26:42.789Z,2.16
2018-03-27T05:27:42.704Z,2.20
2018-03-27T05:28:42.620Z,2.03
2018-03-27T05:29:42.553Z,2.10
2018-03-27T05:30:42.456Z,2.16
2018-03-27T05:31:42.374Z,2.09
2018-03-27T05:32:42.292Z,2.05
2018-03-27T05:33:42.215Z,2.07
2018-03-27T05:34:42.126Z,2.03
2018-03-27T05:35:42.039Z,1.99
2018-03-27T05:36:41.971Z,1.98
2018-03-27T05:37:41.881Z,1.88
2018-03-27T05:38:41.816Z,1.91
2018-03-27T05:39:41.716Z,1.88
2018-03-27T05:40:41.634Z,1.95
2018-03-27T05:41:41.550Z,2.03
2018-03-27T05:42:41.467Z,1.91
2018-03-27T05:43:41.389Z,1.88
2018-03-27T05:44:41.305Z,1.87
2018-03-27T05:45:41.221Z,1.86
2018-03-27T05:46:41.163Z,1.98
2018-03-27T05:47:41.062Z,1.87
2018-03-27T05:48:40.978Z,1.86
2018-03-27T05:49:40.892Z,1.87
2018-03-27T05:50:40.810Z,1.87
2018-03-27T05:51:40.733Z,1.83
2018-03-27T05:52:40.658Z,1.87
2018-03-27T05:53:40.566Z,1.90
2018-03-27T05:54:40.490Z,1.93
2018-03-27T05:55:40.401Z,1.99
2018-03-27T05:56:40.318Z,2.02
2018-03-27T05:57:40.234Z,2.02
2018-03-27T05:58:40.155Z,2.09
2018-03-27T05:59:40.070Z,2.02
2018-03-27T06:00:39.990Z,2.07
2018-03-27T06:01:39.906Z,2.20
2018-03-27T06:02:39.828Z,2.23
2018-03-27T06:03:39.744Z,2.16
2018-03-27T06:04:39.659Z,2.24
2018-03-27T06:05:39.581Z,2.27
2018-03-27T06:06:39.498Z,2.30
2018-03-27T06:07:39.414Z,2.31
2018-03-27T06:08:39.332Z,2.30
2018-03-27T06:09:39.249Z,2.42
2018-03-27T06:10:39.166Z,2.30
2018-03-27T06:11:39.090Z,2.38
2018-03-27T06:12:39.001Z,2.31
2018-03-27T06:13:38.923Z,2.36
2018-03-27T06:14:38.840Z,2.28
2018-03-27T06:15:38.757Z,2.25
2018-03-27T06:16:38.675Z,2.25
2018-03-27T06:17:38.592Z,2.34
2018-03-27T06:18:38.525Z,2.35
2018-03-27T06:19:38.427Z,2.35
2018-03-27T06:20:38.351Z,2.28
2018-03-27T06:21:38.268Z,2.39
2018-03-27T06:22:38.182Z,2.35
2018-03-27T06:23:38.102Z,2.35
2018-03-27T06:24:38.026Z,2.42
2018-03-27T06:25:37.943Z,2.48
2018-03-27T06:26:37.857Z,2.35
2018-03-27T06:27:37.784Z,2.49
2018-03-27T06:28:37.696Z,2.45
2018-03-27T06:29:37.613Z,2.54
2018-03-27T06:30:37.529Z,2.49
2018-03-27T06:31:37.447Z,2.60
2018-03-27T06:32:37.367Z,2.67
2018-03-27T06:33:37.284Z,2.67
2018-03-27T06:34:37.202Z,2.79
2018-03-27T06:35:37.126Z,2.75
2018-03-27T06:36:37.040Z,2.78
2018-03-27T06:37:36.958Z,2.90
2018-03-27T06:38:36.876Z,2.89
2018-03-27T06:39:36.795Z,2.90
2018-03-27T06:40:36.722Z,3.14
2018-03-27T06:41:36.628Z,3.02
2018-03-27T06:42:36.562Z,3.13
2018-03-27T06:43:36.467Z,3.14
2018-03-27T06:44:36.386Z,3.17
2018-03-27T06:45:36.303Z,3.23
2018-03-27T06:46:36.222Z,3.26
2018-03-27T06:47:36.189Z,3.17
2018-03-27T06:48:36.059Z,3.23
2018-03-27T06:49:35.977Z,3.21
2018-03-27T06:50:35.896Z,3.28
2018-03-27T06:51:35.815Z,3.29
2018-03-27T06:52:35.734Z,3.26
2018-03-27T06:53:35.654Z,3.24
2018-03-27T06:54:35.573Z,3.24
2018-03-27T06:55:35.494Z,3.32
2018-03-27T06:56:35.412Z,3.32
2018-03-27T06:57:35.328Z,3.32
2018-03-27T06:58:35.248Z,3.32
2018-03-27T06:59:35.159Z,3.39
2018-03-27T07:00:35.084Z,3.36
2018-03-27T07:01:35.005Z,3.52
2018-03-27T07:02:34.920Z,3.54
2018-03-27T07:03:34.837Z,3.57
2018-03-27T07:04:34.777Z,3.54
2018-03-27T07:05:34.727Z,3.58
2018-03-27T07:06:34.596Z,3.79
2018-03-27T07:07:34.511Z,3.79
2018-03-27T07:08:34.502Z,3.87
2018-03-27T07:09:34.367Z,3.84
2018-03-27T07:10:34.272Z,3.93
2018-03-27T07:11:34.189Z,3.94
2018-03-27T07:12:34.130Z,3.93
2018-03-27T07:13:34.038Z,4.08
2018-03-27T07:14:33.958Z,4.11
2018-03-27T07:15:33.885Z,4.08
2018-03-27T07:16:33.786Z,4.16
2018-03-27T07:17:33.717Z,4.26
2018-03-27T07:18:33.630Z,4.34
2018-03-27T07:19:33.569Z,4.32
2018-03-27T07:20:33.466Z,4.48
2018-03-27T07:21:33.381Z,4.48
2018-03-27T07:22:33.347Z,4.67
2018-03-27T07:23:33.218Z,4.70
2018-03-27T07:24:33.136Z,4.75
2018-03-27T07:25:33.059Z,4.66
2018-03-27T07:26:32.979Z,4.72
2018-03-27T07:27:32.904Z,4.82
2018-03-27T07:28:32.817Z,4.84
2018-03-27T07:29:32.737Z,4.94
2018-03-27T07:30:32.658Z,4.82
2018-03-27T07:31:32.579Z,4.63
2018-03-27T07:32:32.532Z,4.69
2018-03-27T07:33:32.419Z,4.72
2018-03-27T07:34:32.337Z,4.73
2018-03-27T07:35:32.265Z,4.82
2018-03-27T07:36:32.175Z,4.89
2018-03-27T07:37:32.099Z,4.88
2018-03-27T07:38:32.080Z,4.80
2018-03-27T07:39:31.937Z,4.75
2018-03-27T07:40:31.889Z,5.02
2018-03-27T07:41:31.778Z,5.04
2018-03-27T07:42:31.710Z,5.03
2018-03-27T07:43:31.622Z,5.27
2018-03-27T07:44:31.543Z,5.06
2018-03-27T07:45:31.461Z,5.18
2018-03-27T07:46:31.384Z,5.38
2018-03-27T07:47:31.301Z,5.54
2018-03-27T07:48:31.225Z,5.72
2018-03-27T07:49:31.179Z,5.83
2018-03-27T07:50:31.063Z,5.99
2018-03-27T07:51:30.983Z,6.21
2018-03-27T07:52:30.908Z,6.34
2018-03-27T07:53:30.824Z,6.06
2018-03-27T07:54:30.745Z,6.00
2018-03-27T07:55:30.666Z,5.76
2018-03-27T07:56:30.587Z,5.90
2018-03-27T07:57:30.512Z,5.85
2018-03-27T07:58:30.429Z,5.93
2018-03-27T07:59:30.350Z,5.96
2018-03-27T08:00:30.274Z,6.01
2018-03-27T08:01:30.193Z,6.09
2018-03-27T08:02:30.114Z,5.79
2018-03-27T08:03:30.092Z,5.78
2018-03-27T08:04:29.958Z,5.78
2018-03-27T08:05:29.878Z,5.86
2018-03-27T08:06:29.808Z,6.00
2018-03-27T08:07:29.720Z,6.12
2018-03-27T08:08:29.642Z,6.34
2018-03-27T08:09:29.565Z,6.41
2018-03-27T08:10:29.485Z,6.40
2018-03-27T08:11:29.406Z,6.40
2018-03-27T08:12:29.327Z,6.28
2018-03-27T08:13:29.250Z,6.22
2018-03-27T08:14:29.172Z,6.31
2018-03-27T08:15:29.092Z,6.41
2018-03-27T08:16:29.014Z,6.46
2018-03-27T08:17:28.937Z,6.44
2018-03-27T08:18:28.889Z,6.44
2018-03-27T08:19:28.778Z,6.62
2018-03-27T08:20:28.702Z,7.03
2018-03-27T08:21:28.622Z,7.35
2018-03-27T08:22:28.546Z,7.95
2018-03-27T08:23:28.465Z,8.11
2018-03-27T08:24:28.424Z,8.52
2018-03-27T08:25:28.306Z,8.33
2018-03-27T08:26:28.232Z,7.72
2018-03-27T08:27:28.198Z,7.57
2018-03-27T08:28:28.076Z,7.64
2018-03-27T08:29:27.999Z,7.57
2018-03-27T08:30:27.922Z,7.53
2018-03-27T08:31:27.844Z,7.27
2018-03-27T08:32:27.771Z,7.42
2018-03-27T08:33:27.689Z,7.32
2018-03-27T08:34:27.611Z,7.39
2018-03-27T08:35:27.540Z,7.31
2018-03-27T08:36:27.488Z,7.32
2018-03-27T08:37:27.384Z,7.30
2018-03-27T08:38:27.303Z,7.23
2018-03-27T08:39:27.225Z,7.24
2018-03-27T08:40:27.154Z,7.28
2018-03-27T08:41:27.068Z,7.39
2018-03-27T08:42:26.994Z,7.23
2018-03-27T08:43:26.921Z,7.06
2018-03-27T08:44:26.841Z,7.21
2018-03-27T08:45:26.765Z,7.37
2018-03-27T08:46:26.688Z,7.46
2018-03-27T08:47:26.607Z,7.64
2018-03-27T08:48:26.532Z,7.72
2018-03-27T08:49:26.466Z,7.71
2018-03-27T08:50:26.375Z,7.77
2018-03-27T08:51:26.299Z,7.75
2018-03-27T08:52:26.222Z,7.85
2018-03-27T08:53:26.148Z,7.83
2018-03-27T08:54:26.066Z,7.89
2018-03-27T08:55:25.989Z,7.85
2018-03-27T08:56:25.912Z,7.63
2018-03-27T08:57:25.834Z,7.69
2018-03-27T08:58:25.760Z,7.79
2018-03-27T08:59:25.683Z,7.90
2018-03-27T09:00:25.603Z,7.93
2018-03-27T09:01:25.525Z,7.97
2018-03-27T09:02:25.453Z,8.07
2018-03-27T09:03:25.387Z,8.00
2018-03-27T09:04:25.330Z,8.11
2018-03-27T09:05:25.271Z,8.11
2018-03-27T09:06:25.165Z,8.01
2018-03-27T09:07:25.064Z,8.18
2018-03-27T09:08:24.984Z,8.26
2018-03-27T09:09:24.908Z,8.20
2018-03-27T09:10:24.831Z,8.33
2018-03-27T09:11:24.754Z,8.44
2018-03-27T09:12:24.678Z,8.43
2018-03-27T09:13:24.599Z,8.52
2018-03-27T09:14:24.522Z,8.73
2018-03-27T09:15:24.448Z,9.13
2018-03-27T09:16:24.372Z,9.36
2018-03-27T09:17:24.294Z,9.32
2018-03-27T09:18:24.220Z,9.69
2018-03-27T09:19:24.154Z,9.65
2018-03-27T09:20:24.060Z,9.58
2018-03-27T09:21:23.987Z,9.29
2018-03-27T09:22:23.910Z,9.46
2018-03-27T09:23:23.885Z,9.48
2018-03-27T09:24:23.757Z,9.64
2018-03-27T09:25:23.675Z,9.76
2018-03-27T09:26:23.605Z,9.83
2018-03-27T09:27:23.529Z,10.01
2018-03-27T09:28:23.455Z,9.89
2018-03-27T09:29:23.380Z,10.22
2018-03-27T09:30:23.301Z,10.23
2018-03-27T09:31:23.232Z,10.27
2018-03-27T09:32:23.150Z,10.29
2018-03-27T09:33:23.075Z,10.07
2018-03-27T09:34:23.003Z,10.36
2018-03-27T09:35:22.924Z,10.18
2018-03-27T09:36:22.894Z,10.76
2018-03-27T09:37:22.774Z,11.03
2018-03-27T09:38:22.704Z,10.92
2018-03-27T09:39:22.627Z,11.22
2018-03-27T09:40:22.550Z,11.18
2018-03-27T09:41:22.475Z,11.27
2018-03-27T09:42:22.403Z,11.22
2018-03-27T09:43:22.332Z,11.18
2018-03-27T09:44:22.250Z,11.14
2018-03-27T09:45:22.179Z,11.21
2018-03-27T09:46:22.102Z,10.96
2018-03-27T09:47:22.029Z,10.92
2018-03-27T09:48:21.955Z,10.97
2018-03-27T09:49:21.884Z,10.91
2018-03-27T09:50:21.808Z,10.92
2018-03-27T09:51:21.734Z,10.40
2018-03-27T09:52:21.660Z,10.32
2018-03-27T09:53:21.588Z,10.30
2018-03-27T09:54:21.514Z,10.23
2018-03-27T09:55:21.444Z,10.14
2018-03-27T09:56:21.359Z,10.34
2018-03-27T09:57:21.288Z,10.66
2018-03-27T09:58:21.215Z,11.02
2018-03-27T09:59:21.142Z,11.00
2018-03-27T10:00:21.068Z,10.67
2018-03-27T10:01:20.990Z,10.81
2018-03-27T10:02:20.921Z,11.00
2018-03-27T10:03:20.842Z,11.11
2018-03-27T10:04:20.772Z,11.11
2018-03-27T10:05:20.720Z,11.29
2018-03-27T10:06:20.624Z,11.18
2018-03-27T10:07:20.549Z,11.18
2018-03-27T10:08:20.481Z,11.15
2018-03-27T10:09:20.399Z,10.86
2018-03-27T10:10:20.325Z,10.89
2018-03-27T10:11:20.253Z,10.99
2018-03-27T10:12:20.178Z,10.73
2018-03-27T10:13:20.100Z,10.78
2018-03-27T10:14:20.030Z,10.96
2018-03-27T10:15:19.953Z,10.88
2018-03-27T10:16:19.884Z,10.78
2018-03-27T10:17:19.811Z,10.92
2018-03-27T10:18:19.734Z,10.78
2018-03-27T10:19:19.657Z,10.60
2018-03-27T10:20:19.588Z,10.88
2018-03-27T10:21:19.504Z,10.78
2018-03-27T10:22:19.430Z,10.97
2018-03-27T10:23:19.391Z,10.89
2018-03-27T10:24:19.287Z,11.04
2018-03-27T10:25:19.212Z,10.99
2018-03-27T10:26:19.134Z,10.97
2018-03-27T10:27:19.074Z,10.96
2018-03-27T10:28:18.983Z,10.96
2018-03-27T10:29:18.914Z,11.02
2018-03-27T10:30:18.840Z,11.15
2018-03-27T10:31:18.762Z,11.19
2018-03-27T10:32:18.686Z,11.03
2018-03-27T10:33:18.615Z,11.10
2018-03-27T10:34:18.559Z,11.07
2018-03-27T10:35:18.464Z,11.09
2018-03-27T10:36:18.397Z,11.22
2018-03-27T10:37:18.313Z,11.27
2018-03-27T10:38:18.245Z,11.40
2018-03-27T10:39:18.183Z,11.15
2018-03-27T10:40:18.095Z,11.10
2018-03-27T10:41:18.019Z,11.32
2018-03-27T10:42:17.945Z,11.39
2018-03-27T10:43:17.878Z,11.29
2018-03-27T10:44:17.792Z,11.18
2018-03-27T10:45:17.718Z,11.58
2018-03-27T10:46:17.652Z,11.82
2018-03-27T10:47:17.565Z,12.21
2018-03-27T10:48:17.501Z,12.24
2018-03-27T10:49:17.423Z,12.12
2018-03-27T10:50:17.347Z,12.35
2018-03-27T10:51:17.285Z,12.49
2018-03-27T10:52:17.199Z,12.23
2018-03-27T10:53:17.124Z,12.16
2018-03-27T10:54:17.051Z,12.27
2018-03-27T10:55:16.982Z,12.65
2018-03-27T10:56:16.906Z,12.68
2018-03-27T10:57:16.831Z,12.56
2018-03-27T10:58:16.767Z,12.74
2018-03-27T10:59:16.685Z,12.77
2018-03-27T11:00:16.610Z,12.62
2018-03-27T11:01:16.535Z,12.85
2018-03-27T11:02:16.467Z,12.46
2018-03-27T11:03:16.393Z,12.62
2018-03-27T11:04:16.317Z,12.74
2018-03-27T11:05:16.247Z,12.79
2018-03-27T11:06:16.172Z,13.08
2018-03-27T11:07:16.110Z,12.72
2018-03-27T11:08:16.031Z,12.77
2018-03-27T11:09:15.954Z,12.54
2018-03-27T11:10:15.879Z,12.77
2018-03-27T11:11:15.817Z,12.79
2018-03-27T11:12:15.732Z,13.10
2018-03-27T11:13:15.666Z,13.22
2018-03-27T11:14:15.585Z,13.38
2018-03-27T11:15:15.518Z,13.45
2018-03-27T11:16:15.445Z,13.38
2018-03-27T11:17:15.376Z,13.69
2018-03-27T11:18:15.302Z,13.54
2018-03-27T11:19:15.233Z,13.63
2018-03-27T11:20:15.201Z,13.48
2018-03-27T11:21:15.081Z,13.87
2018-03-27T11:22:15.013Z,13.88
2018-03-27T11:23:14.999Z,13.67
2018-03-27T11:24:14.866Z,14.02
2018-03-27T11:25:14.795Z,13.87
2018-03-27T11:26:14.727Z,14.10
2018-03-27T11:27:14.659Z,14.28
2018-03-27T11:28:14.581Z,14.10
2018-03-27T11:29:14.532Z,13.73
2018-03-27T11:30:14.437Z,13.26
2018-03-27T11:31:14.379Z,13.59
2018-03-27T11:32:14.296Z,13.70
2018-03-27T11:33:14.224Z,13.67
2018-03-27T11:34:14.152Z,13.59
2018-03-27T11:35:14.084Z,13.59
2018-03-27T11:36:14.009Z,13.39
2018-03-27T11:37:13.951Z,13.29
2018-03-27T11:38:13.865Z,12.97
2018-03-27T11:39:13.793Z,12.95
2018-03-27T11:40:13.725Z,12.77
2018-03-27T11:41:13.647Z,13.03
2018-03-27T11:42:13.578Z,13.45
2018-03-27T11:43:13.501Z,13.64
2018-03-27T11:44:13.448Z,13.70
2018-03-27T11:45:13.364Z,14.02
2018-03-27T11:46:13.292Z,13.82
2018-03-27T11:47:13.224Z,13.89
2018-03-27T11:48:13.148Z,14.06
2018-03-27T11:49:13.106Z,14.24
2018-03-27T11:50:13.003Z,14.14
2018-03-27T11:51:12.933Z,13.97
2018-03-27T11:52:12.864Z,14.17
2018-03-27T11:53:12.790Z,14.17
2018-03-27T11:54:12.719Z,13.91
2018-03-27T11:55:12.640Z,14.02
2018-03-27T11:56:12.579Z,13.51
2018-03-27T11:57:12.506Z,13.32
2018-03-27T11:58:12.433Z,13.30
2018-03-27T11:59:12.362Z,13.30
2018-03-27T12:00:12.291Z,13.42
2018-03-27T12:01:12.212Z,13.46
2018-03-27T12:02:12.150Z,13.49
2018-03-27T12:03:12.077Z,13.39
2018-03-27T12:04:12.007Z,13.51
2018-03-27T12:05:11.933Z,13.36
2018-03-27T12:06:11.864Z,13.45
2018-03-27T12:07:11.794Z,13.30
2018-03-27T12:08:11.719Z,13.32
2018-03-27T12:09:11.648Z,13.26
2018-03-27T12:10:11.574Z,13.29
2018-03-27T12:11:11.501Z,13.32
2018-03-27T12:12:11.427Z,12.86
2018-03-27T12:13:11.358Z,12.92
2018-03-27T12:14:11.284Z,12.86
2018-03-27T12:15:11.214Z,12.70
2018-03-27T12:16:11.139Z,12.97
2018-03-27T12:17:11.066Z,13.22
2018-03-27T12:18:10.999Z,12.96
2018-03-27T12:19:10.920Z,13.00
2018-03-27T12:20:10.851Z,13.07
2018-03-27T12:21:10.779Z,13.04
2018-03-27T12:22:10.712Z,13.32
2018-03-27T12:23:10.630Z,13.30
2018-03-27T12:24:10.556Z,13.49
2018-03-27T12:25:10.487Z,13.64
2018-03-27T12:26:10.411Z,13.46
2018-03-27T12:27:10.340Z,13.57
2018-03-27T12:28:10.267Z,13.66
2018-03-27T12:29:10.193Z,13.69
2018-03-27T12:30:10.118Z,13.63
2018-03-27T12:31:10.057Z,13.69
2018-03-27T12:32:09.971Z,13.89
2018-03-27T12:33:09.901Z,13.92
2018-03-27T12:34:09.826Z,13.55
2018-03-27T12:35:09.753Z,13.51
2018-03-27T12:36:09.682Z,13.25
2018-03-27T12:37:09.616Z,13.33
2018-03-27T12:38:09.536Z,13.46
2018-03-27T12:39:09.466Z,13.48
2018-03-27T12:40:09.392Z,13.63
2018-03-27T12:41:09.314Z,13.55
2018-03-27T12:42:09.288Z,13.49
2018-03-27T12:43:09.170Z,13.29
2018-03-27T12:44:09.099Z,13.39
2018-03-27T12:45:09.024Z,13.55
2018-03-27T12:46:08.944Z,13.29
2018-03-27T12:47:08.879Z,13.33
2018-03-27T12:48:08.806Z,13.30
2018-03-27T12:49:08.731Z,13.55
2018-03-27T12:50:08.679Z,13.36
2018-03-27T12:51:08.590Z,13.44
2018-03-27T12:52:08.511Z,13.51
2018-03-27T12:53:08.436Z,13.39
2018-03-27T12:54:08.370Z,13.38
2018-03-27T12:55:08.292Z,13.42
2018-03-27T12:56:08.223Z,13.33
2018-03-27T12:57:08.142Z,13.29
2018-03-27T12:58:08.071Z,13.15
2018-03-27T12:59:08.025Z,13.22
2018-03-27T13:00:07.923Z,13.17
2018-03-27T13:01:07.848Z,13.19
2018-03-27T13:02:07.779Z,13.22
2018-03-27T13:03:07.704Z,13.08
2018-03-27T13:04:07.631Z,13.10
2018-03-27T13:05:07.556Z,13.01
2018-03-27T13:06:07.482Z,12.93
2018-03-27T13:07:07.411Z,12.85
2018-03-27T13:08:07.336Z,12.82
2018-03-27T13:09:07.266Z,12.75
2018-03-27T13:10:07.191Z,12.60